CheckWX is a tool to help pilots better visualize weather data.  It is not intended as a substitute for an official pre-flight weather briefing.

03:03:40 UTC

KVIS METAR
Visalia Municipal Airport
Visalia, California, USA
Current

8 mins ago

KVIS 130256Z AUTO 00000KT 4SM HZ CLR 13/09 A3028 RMK AO2 SLP265 T01330094 53002
Observed
Dec-13 @ 02:56 UTC
Visibility
4 SM
Flight Rules
MVFR
Conditions
Haze
Cloud Levels
  • Clear skies
Temperature
13°C / 55°F
Dewpoint
C / 48°F
Humidity
77%
Altimeter
30.28" Hg
Pressure
1025.42 hPa
Previous

1 hour ago

KVIS 130156Z AUTO 00000KT 10SM CLR 14/09 A3028 RMK AO2 SLP262 T01390094
Observed
Dec-13 @ 01:56 UTC
Visibility
10 SM
Flight Rules
VFR
Cloud Levels
  • Clear skies
Temperature
14°C / 57°F
Dewpoint
C / 48°F
Humidity
72%
Altimeter
30.28" Hg
Pressure
1025.42 hPa
Previous

2 hours ago

KVIS 130056Z AUTO 00000KT 10SM CLR 16/09 A3027 RMK AO2 SLP261 T01610094
Observed
Dec-13 @ 00:56 UTC
Visibility
10 SM
Flight Rules
VFR
Cloud Levels
  • Clear skies
Temperature
16°C / 61°F
Dewpoint
C / 48°F
Humidity
63%
Altimeter
30.27" Hg
Pressure
1025.02 hPa